sensor_id;sensor_type;location;lat;lon;timestamp;P1;durP1;ratioP1;P2;durP2;ratioP2
53479;SDS011;56133;51.012;-1.648;2022-12-05T00:00:21;22.42;;;11.30;;
53479;SDS011;56133;51.012;-1.648;2022-12-05T00:02:47;23.20;;;12.18;;
53479;SDS011;56133;51.012;-1.648;2022-12-05T00:05:12;24.25;;;11.98;;
53479;SDS011;56133;51.012;-1.648;2022-12-05T00:07:38;20.88;;;11.57;;
53479;SDS011;56133;51.012;-1.648;2022-12-05T00:10:04;22.10;;;12.07;;
53479;SDS011;56133;51.012;-1.648;2022-12-05T00:12:30;21.65;;;11.85;;
53479;SDS011;56133;51.012;-1.648;2022-12-05T00:14:56;22.35;;;12.70;;
53479;SDS011;56133;51.012;-1.648;2022-12-05T00:17:21;24.75;;;12.85;;
53479;SDS011;56133;51.012;-1.648;2022-12-05T00:19:47;23.48;;;13.00;;
53479;SDS011;56133;51.012;-1.648;2022-12-05T00:22:12;21.83;;;12.30;;
53479;SDS011;56133;51.012;-1.648;2022-12-05T00:24:38;24.58;;;14.25;;
53479;SDS011;56133;51.012;-1.648;2022-12-05T00:27:04;25.13;;;13.50;;
53479;SDS011;56133;51.012;-1.648;2022-12-05T00:29:29;26.67;;;14.48;;
53479;SDS011;56133;51.012;-1.648;2022-12-05T00:31:55;25.08;;;13.88;;
53479;SDS011;56133;51.012;-1.648;2022-12-05T00:34:20;22.77;;;12.77;;
53479;SDS011;56133;51.012;-1.648;2022-12-05T00:36:46;23.55;;;13.07;;
53479;SDS011;56133;51.012;-1.648;2022-12-05T00:39:11;25.40;;;13.50;;
53479;SDS011;56133;51.012;-1.648;2022-12-05T00:41:39;24.88;;;12.80;;
53479;SDS011;56133;51.012;-1.648;2022-12-05T00:44:06;24.10;;;12.93;;
53479;SDS011;56133;51.012;-1.648;2022-12-05T00:46:32;25.73;;;12.90;;
53479;SDS011;56133;51.012;-1.648;2022-12-05T00:48:59;21.92;;;12.50;;
53479;SDS011;56133;51.012;-1.648;2022-12-05T00:51:27;24.90;;;12.95;;
53479;SDS011;56133;51.012;-1.648;2022-12-05T00:53:57;23.35;;;12.82;;
53479;SDS011;56133;51.012;-1.648;2022-12-05T00:56:25;20.55;;;11.63;;
53479;SDS011;56133;51.012;-1.648;2022-12-05T00:58:52;22.08;;;12.32;;
53479;SDS011;56133;51.012;-1.648;2022-12-05T01:01:20;24.17;;;13.48;;
53479;SDS011;56133;51.012;-1.648;2022-12-05T01:03:56;23.83;;;12.85;;
53479;SDS011;56133;51.012;-1.648;2022-12-05T01:06:23;23.83;;;13.00;;
53479;SDS011;56133;51.012;-1.648;2022-12-05T01:08:51;23.38;;;12.88;;
53479;SDS011;56133;51.012;-1.648;2022-12-05T01:11:18;26.13;;;12.75;;
53479;SDS011;56133;51.012;-1.648;2022-12-05T01:13:44;27.70;;;13.35;;
53479;SDS011;56133;51.012;-1.648;2022-12-05T01:16:44;24.48;;;13.60;;
53479;SDS011;56133;51.012;-1.648;2022-12-05T01:19:04;24.63;;;13.10;;
53479;SDS011;56133;51.012;-1.648;2022-12-05T01:21:32;23.38;;;12.93;;
53479;SDS011;56133;51.012;-1.648;2022-12-05T01:23:57;24.90;;;13.43;;
53479;SDS011;56133;51.012;-1.648;2022-12-05T01:26:23;29.95;;;13.73;;
53479;SDS011;56133;51.012;-1.648;2022-12-05T01:28:49;24.23;;;12.77;;
53479;SDS011;56133;51.012;-1.648;2022-12-05T01:33:48;25.63;;;13.75;;
53479;SDS011;56133;51.012;-1.648;2022-12-05T01:36:14;27.20;;;14.02;;
53479;SDS011;56133;51.012;-1.648;2022-12-05T01:38:41;29.08;;;14.38;;
53479;SDS011;56133;51.012;-1.648;2022-12-05T01:41:08;26.40;;;13.57;;
53479;SDS011;56133;51.012;-1.648;2022-12-05T01:46:23;30.60;;;15.75;;
53479;SDS011;56133;51.012;-1.648;2022-12-05T01:48:50;29.13;;;15.15;;
53479;SDS011;56133;51.012;-1.648;2022-12-05T01:51:19;31.70;;;14.18;;
53479;SDS011;56133;51.012;-1.648;2022-12-05T01:53:44;27.77;;;13.52;;
53479;SDS011;56133;51.012;-1.648;2022-12-05T01:56:10;27.65;;;15.07;;
53479;SDS011;56133;51.012;-1.648;2022-12-05T01:58:37;27.38;;;13.40;;
53479;SDS011;56133;51.012;-1.648;2022-12-05T02:01:04;27.70;;;13.95;;
53479;SDS011;56133;51.012;-1.648;2022-12-05T02:03:30;27.98;;;14.35;;
53479;SDS011;56133;51.012;-1.648;2022-12-05T02:05:55;29.00;;;15.38;;
53479;SDS011;56133;51.012;-1.648;2022-12-05T02:08:22;33.42;;;15.45;;
53479;SDS011;56133;51.012;-1.648;2022-12-05T02:10:52;31.38;;;14.50;;
53479;SDS011;56133;51.012;-1.648;2022-12-05T02:16:10;32.13;;;15.65;;
53479;SDS011;56133;51.012;-1.648;2022-12-05T02:38:07;35.88;;;17.42;;
53479;SDS011;56133;51.012;-1.648;2022-12-05T02:40:42;36.35;;;18.30;;
53479;SDS011;56133;51.012;-1.648;2022-12-05T02:43:15;37.40;;;18.40;;
53479;SDS011;56133;51.012;-1.648;2022-12-05T02:45:51;35.63;;;17.75;;
53479;SDS011;56133;51.012;-1.648;2022-12-05T02:48:21;43.40;;;19.33;;
53479;SDS011;56133;51.012;-1.648;2022-12-05T02:50:50;39.47;;;19.25;;
53479;SDS011;56133;51.012;-1.648;2022-12-05T02:53:17;36.58;;;18.58;;
53479;SDS011;56133;51.012;-1.648;2022-12-05T02:55:46;37.70;;;18.02;;
53479;SDS011;56133;51.012;-1.648;2022-12-05T02:58:21;43.72;;;21.13;;
53479;SDS011;56133;51.012;-1.648;2022-12-05T03:00:49;39.92;;;19.45;;
53479;SDS011;56133;51.012;-1.648;2022-12-05T03:03:18;41.05;;;20.08;;
53479;SDS011;56133;51.012;-1.648;2022-12-05T03:08:31;43.08;;;20.83;;
53479;SDS011;56133;51.012;-1.648;2022-12-05T03:11:07;46.28;;;20.90;;
53479;SDS011;56133;51.012;-1.648;2022-12-05T03:13:53;46.22;;;21.15;;
53479;SDS011;56133;51.012;-1.648;2022-12-05T03:16:26;43.72;;;20.55;;
53479;SDS011;56133;51.012;-1.648;2022-12-05T03:18:57;48.85;;;22.30;;
53479;SDS011;56133;51.012;-1.648;2022-12-05T03:21:30;47.28;;;22.17;;
53479;SDS011;56133;51.012;-1.648;2022-12-05T03:24:06;49.28;;;22.13;;
53479;SDS011;56133;51.012;-1.648;2022-12-05T03:35:10;47.88;;;23.50;;
53479;SDS011;56133;51.012;-1.648;2022-12-05T03:38:38;51.47;;;23.50;;
53479;SDS011;56133;51.012;-1.648;2022-12-05T03:46:17;57.85;;;25.35;;
53479;SDS011;56133;51.012;-1.648;2022-12-05T03:51:34;53.75;;;25.58;;
53479;SDS011;56133;51.012;-1.648;2022-12-05T03:54:05;53.58;;;24.50;;
53479;SDS011;56133;51.012;-1.648;2022-12-05T03:56:40;60.10;;;26.95;;
53479;SDS011;56133;51.012;-1.648;2022-12-05T03:59:13;58.42;;;26.52;;
53479;SDS011;56133;51.012;-1.648;2022-12-05T04:01:46;56.65;;;25.73;;
53479;SDS011;56133;51.012;-1.648;2022-12-05T04:04:15;51.60;;;24.40;;
53479;SDS011;56133;51.012;-1.648;2022-12-05T04:06:45;56.22;;;25.63;;
53479;SDS011;56133;51.012;-1.648;2022-12-05T04:09:18;58.47;;;26.23;;
53479;SDS011;56133;51.012;-1.648;2022-12-05T04:11:48;60.42;;;27.63;;
53479;SDS011;56133;51.012;-1.648;2022-12-05T04:14:18;49.78;;;24.52;;
53479;SDS011;56133;51.012;-1.648;2022-12-05T04:17:02;54.03;;;25.90;;
53479;SDS011;56133;51.012;-1.648;2022-12-05T04:19:50;55.72;;;26.38;;
53479;SDS011;56133;51.012;-1.648;2022-12-05T04:22:37;56.60;;;25.63;;
53479;SDS011;56133;51.012;-1.648;2022-12-05T04:25:04;59.22;;;26.50;;
53479;SDS011;56133;51.012;-1.648;2022-12-05T04:27:58;59.60;;;27.08;;
53479;SDS011;56133;51.012;-1.648;2022-12-05T04:36:30;59.35;;;28.42;;
53479;SDS011;56133;51.012;-1.648;2022-12-05T04:41:36;60.35;;;26.40;;
53479;SDS011;56133;51.012;-1.648;2022-12-05T04:44:09;63.47;;;27.70;;
53479;SDS011;56133;51.012;-1.648;2022-12-05T04:46:37;59.03;;;28.15;;
53479;SDS011;56133;51.012;-1.648;2022-12-05T04:49:06;64.18;;;28.45;;
53479;SDS011;56133;51.012;-1.648;2022-12-05T04:51:35;61.00;;;28.55;;
53479;SDS011;56133;51.012;-1.648;2022-12-05T04:54:36;59.17;;;27.42;;
53479;SDS011;56133;51.012;-1.648;2022-12-05T04:57:11;62.17;;;27.20;;
53479;SDS011;56133;51.012;-1.648;2022-12-05T04:59:41;59.45;;;26.67;;
53479;SDS011;56133;51.012;-1.648;2022-12-05T05:02:08;57.45;;;27.75;;
53479;SDS011;56133;51.012;-1.648;2022-12-05T05:04:43;56.85;;;26.08;;
53479;SDS011;56133;51.012;-1.648;2022-12-05T05:07:15;57.33;;;25.63;;
53479;SDS011;56133;51.012;-1.648;2022-12-05T05:09:41;57.47;;;26.55;;
53479;SDS011;56133;51.012;-1.648;2022-12-05T05:12:08;59.88;;;28.35;;
53479;SDS011;56133;51.012;-1.648;2022-12-05T05:14:33;59.80;;;27.35;;
53479;SDS011;56133;51.012;-1.648;2022-12-05T05:16:59;57.20;;;27.75;;
53479;SDS011;56133;51.012;-1.648;2022-12-05T05:19:24;58.35;;;28.55;;
53479;SDS011;56133;51.012;-1.648;2022-12-05T05:21:50;57.22;;;28.45;;
53479;SDS011;56133;51.012;-1.648;2022-12-05T05:24:17;55.80;;;27.02;;
53479;SDS011;56133;51.012;-1.648;2022-12-05T05:26:43;59.22;;;29.20;;
53479;SDS011;56133;51.012;-1.648;2022-12-05T05:29:10;56.38;;;28.80;;
53479;SDS011;56133;51.012;-1.648;2022-12-05T05:31:37;60.75;;;29.63;;
53479;SDS011;56133;51.012;-1.648;2022-12-05T05:34:03;55.88;;;26.13;;
53479;SDS011;56133;51.012;-1.648;2022-12-05T05:36:29;57.58;;;27.88;;
53479;SDS011;56133;51.012;-1.648;2022-12-05T05:38:56;63.08;;;29.52;;
53479;SDS011;56133;51.012;-1.648;2022-12-05T05:41:24;58.70;;;28.90;;
53479;SDS011;56133;51.012;-1.648;2022-12-05T05:43:51;60.25;;;28.58;;
53479;SDS011;56133;51.012;-1.648;2022-12-05T05:46:19;64.40;;;30.15;;
53479;SDS011;56133;51.012;-1.648;2022-12-05T05:48:46;59.83;;;28.98;;
53479;SDS011;56133;51.012;-1.648;2022-12-05T05:51:12;59.55;;;28.67;;
53479;SDS011;56133;51.012;-1.648;2022-12-05T05:53:39;62.40;;;29.17;;
53479;SDS011;56133;51.012;-1.648;2022-12-05T05:56:06;65.10;;;29.85;;
53479;SDS011;56133;51.012;-1.648;2022-12-05T05:58:36;64.63;;;31.23;;
53479;SDS011;56133;51.012;-1.648;2022-12-05T06:01:03;64.88;;;29.95;;
53479;SDS011;56133;51.012;-1.648;2022-12-05T06:03:29;59.50;;;30.40;;
53479;SDS011;56133;51.012;-1.648;2022-12-05T06:05:58;61.40;;;29.67;;
53479;SDS011;56133;51.012;-1.648;2022-12-05T06:08:24;63.85;;;31.08;;
53479;SDS011;56133;51.012;-1.648;2022-12-05T06:10:50;65.72;;;30.90;;
53479;SDS011;56133;51.012;-1.648;2022-12-05T06:13:15;64.60;;;31.92;;
53479;SDS011;56133;51.012;-1.648;2022-12-05T06:15:41;64.72;;;31.15;;
53479;SDS011;56133;51.012;-1.648;2022-12-05T06:18:06;63.15;;;30.65;;
53479;SDS011;56133;51.012;-1.648;2022-12-05T06:20:32;68.40;;;31.63;;
53479;SDS011;56133;51.012;-1.648;2022-12-05T06:22:57;64.10;;;31.92;;
53479;SDS011;56133;51.012;-1.648;2022-12-05T06:25:22;63.70;;;30.35;;
53479;SDS011;56133;51.012;-1.648;2022-12-05T06:27:48;66.88;;;33.03;;
53479;SDS011;56133;51.012;-1.648;2022-12-05T06:30:13;64.70;;;31.60;;
53479;SDS011;56133;51.012;-1.648;2022-12-05T06:32:39;68.65;;;33.00;;
53479;SDS011;56133;51.012;-1.648;2022-12-05T06:35:04;64.18;;;32.13;;
53479;SDS011;56133;51.012;-1.648;2022-12-05T06:37:39;70.78;;;33.28;;
53479;SDS011;56133;51.012;-1.648;2022-12-05T06:40:05;65.35;;;32.20;;
53479;SDS011;56133;51.012;-1.648;2022-12-05T06:42:31;69.53;;;33.45;;
53479;SDS011;56133;51.012;-1.648;2022-12-05T06:44:56;65.93;;;31.95;;
53479;SDS011;56133;51.012;-1.648;2022-12-05T06:47:22;64.75;;;32.97;;
53479;SDS011;56133;51.012;-1.648;2022-12-05T06:49:47;65.63;;;33.83;;
53479;SDS011;56133;51.012;-1.648;2022-12-05T06:52:12;62.95;;;32.28;;
53479;SDS011;56133;51.012;-1.648;2022-12-05T06:54:38;63.45;;;32.00;;
53479;SDS011;56133;51.012;-1.648;2022-12-05T06:57:03;63.47;;;31.52;;
53479;SDS011;56133;51.012;-1.648;2022-12-05T06:59:29;61.38;;;30.80;;
53479;SDS011;56133;51.012;-1.648;2022-12-05T07:01:54;67.78;;;33.95;;
53479;SDS011;56133;51.012;-1.648;2022-12-05T07:04:20;64.00;;;33.03;;
53479;SDS011;56133;51.012;-1.648;2022-12-05T07:06:50;66.25;;;32.80;;
53479;SDS011;56133;51.012;-1.648;2022-12-05T07:09:21;63.03;;;31.38;;
53479;SDS011;56133;51.012;-1.648;2022-12-05T07:12:08;67.03;;;32.97;;
53479;SDS011;56133;51.012;-1.648;2022-12-05T07:14:33;61.55;;;32.25;;
53479;SDS011;56133;51.012;-1.648;2022-12-05T07:16:59;61.33;;;30.92;;
53479;SDS011;56133;51.012;-1.648;2022-12-05T07:19:24;67.97;;;31.05;;
53479;SDS011;56133;51.012;-1.648;2022-12-05T07:21:50;68.13;;;32.70;;
53479;SDS011;56133;51.012;-1.648;2022-12-05T07:24:15;71.32;;;33.33;;
53479;SDS011;56133;51.012;-1.648;2022-12-05T07:26:41;66.30;;;31.90;;
53479;SDS011;56133;51.012;-1.648;2022-12-05T07:29:06;62.13;;;31.52;;
53479;SDS011;56133;51.012;-1.648;2022-12-05T07:31:31;59.53;;;33.03;;
53479;SDS011;56133;51.012;-1.648;2022-12-05T07:33:58;61.65;;;30.42;;
53479;SDS011;56133;51.012;-1.648;2022-12-05T07:36:23;62.53;;;30.77;;
53479;SDS011;56133;51.012;-1.648;2022-12-05T07:38:53;64.90;;;31.90;;
53479;SDS011;56133;51.012;-1.648;2022-12-05T07:41:23;61.35;;;30.90;;
53479;SDS011;56133;51.012;-1.648;2022-12-05T07:43:50;63.78;;;32.20;;
53479;SDS011;56133;51.012;-1.648;2022-12-05T07:46:17;61.33;;;31.55;;
53479;SDS011;56133;51.012;-1.648;2022-12-05T07:48:42;58.00;;;30.85;;
53479;SDS011;56133;51.012;-1.648;2022-12-05T07:51:08;55.85;;;30.23;;
53479;SDS011;56133;51.012;-1.648;2022-12-05T07:53:34;61.85;;;30.85;;
53479;SDS011;56133;51.012;-1.648;2022-12-05T07:56:02;58.55;;;30.10;;
53479;SDS011;56133;51.012;-1.648;2022-12-05T07:58:29;57.70;;;29.95;;
53479;SDS011;56133;51.012;-1.648;2022-12-05T08:00:55;52.40;;;29.17;;
53479;SDS011;56133;51.012;-1.648;2022-12-05T08:03:22;57.50;;;29.55;;
53479;SDS011;56133;51.012;-1.648;2022-12-05T08:05:48;61.28;;;31.30;;
53479;SDS011;56133;51.012;-1.648;2022-12-05T08:08:14;58.63;;;30.55;;
53479;SDS011;56133;51.012;-1.648;2022-12-05T08:10:39;59.97;;;30.52;;
53479;SDS011;56133;51.012;-1.648;2022-12-05T08:13:05;61.63;;;31.42;;
53479;SDS011;56133;51.012;-1.648;2022-12-05T08:15:33;62.95;;;31.15;;
53479;SDS011;56133;51.012;-1.648;2022-12-05T08:17:59;59.53;;;31.20;;
53479;SDS011;56133;51.012;-1.648;2022-12-05T08:20:25;57.75;;;30.25;;
53479;SDS011;56133;51.012;-1.648;2022-12-05T08:22:51;62.78;;;31.73;;
53479;SDS011;56133;51.012;-1.648;2022-12-05T08:25:17;59.22;;;30.65;;
53479;SDS011;56133;51.012;-1.648;2022-12-05T08:27:43;61.40;;;30.98;;
53479;SDS011;56133;51.012;-1.648;2022-12-05T08:30:08;61.60;;;30.05;;
53479;SDS011;56133;51.012;-1.648;2022-12-05T08:32:34;61.03;;;31.45;;
53479;SDS011;56133;51.012;-1.648;2022-12-05T08:34:59;61.83;;;31.15;;
53479;SDS011;56133;51.012;-1.648;2022-12-05T08:37:25;64.82;;;32.17;;
53479;SDS011;56133;51.012;-1.648;2022-12-05T08:39:50;59.83;;;31.08;;
53479;SDS011;56133;51.012;-1.648;2022-12-05T08:42:16;61.85;;;30.02;;
53479;SDS011;56133;51.012;-1.648;2022-12-05T08:44:41;63.35;;;29.70;;
53479;SDS011;56133;51.012;-1.648;2022-12-05T08:47:07;59.97;;;29.77;;
53479;SDS011;56133;51.012;-1.648;2022-12-05T08:49:32;58.78;;;29.98;;
53479;SDS011;56133;51.012;-1.648;2022-12-05T08:51:57;56.83;;;28.65;;
53479;SDS011;56133;51.012;-1.648;2022-12-05T08:54:23;54.35;;;29.83;;
53479;SDS011;56133;51.012;-1.648;2022-12-05T08:56:51;62.75;;;31.05;;
53479;SDS011;56133;51.012;-1.648;2022-12-05T08:59:17;61.05;;;29.55;;
53479;SDS011;56133;51.012;-1.648;2022-12-05T09:01:44;62.50;;;31.15;;
53479;SDS011;56133;51.012;-1.648;2022-12-05T09:04:09;62.75;;;30.13;;
53479;SDS011;56133;51.012;-1.648;2022-12-05T09:06:36;57.80;;;29.30;;
53479;SDS011;56133;51.012;-1.648;2022-12-05T09:09:04;59.50;;;29.90;;
53479;SDS011;56133;51.012;-1.648;2022-12-05T09:11:33;63.10;;;31.23;;
53479;SDS011;56133;51.012;-1.648;2022-12-05T09:14:01;55.70;;;29.40;;
53479;SDS011;56133;51.012;-1.648;2022-12-05T09:16:30;52.13;;;27.10;;
53479;SDS011;56133;51.012;-1.648;2022-12-05T09:18:57;53.90;;;27.85;;
53479;SDS011;56133;51.012;-1.648;2022-12-05T09:21:24;56.83;;;28.65;;
53479;SDS011;56133;51.012;-1.648;2022-12-05T09:23:52;55.67;;;28.50;;
53479;SDS011;56133;51.012;-1.648;2022-12-05T09:26:19;52.75;;;27.13;;
53479;SDS011;56133;51.012;-1.648;2022-12-05T09:28:47;56.65;;;28.17;;
53479;SDS011;56133;51.012;-1.648;2022-12-05T09:31:14;55.00;;;27.67;;
53479;SDS011;56133;51.012;-1.648;2022-12-05T09:33:44;53.67;;;29.23;;
53479;SDS011;56133;51.012;-1.648;2022-12-05T09:36:13;50.67;;;26.35;;
53479;SDS011;56133;51.012;-1.648;2022-12-05T09:38:43;53.25;;;26.92;;
53479;SDS011;56133;51.012;-1.648;2022-12-05T09:41:23;52.58;;;28.75;;
53479;SDS011;56133;51.012;-1.648;2022-12-05T09:49:57;51.30;;;27.08;;
53479;SDS011;56133;51.012;-1.648;2022-12-05T09:53:17;53.17;;;25.80;;
53479;SDS011;56133;51.012;-1.648;2022-12-05T09:58:18;55.30;;;27.52;;
53479;SDS011;56133;51.012;-1.648;2022-12-05T10:01:07;48.42;;;26.60;;
53479;SDS011;56133;51.012;-1.648;2022-12-05T10:06:28;46.90;;;25.38;;
53479;SDS011;56133;51.012;-1.648;2022-12-05T10:17:06;47.33;;;25.63;;
53479;SDS011;56133;51.012;-1.648;2022-12-05T10:19:41;48.05;;;26.95;;
53479;SDS011;56133;51.012;-1.648;2022-12-05T10:22:18;50.15;;;27.02;;
53479;SDS011;56133;51.012;-1.648;2022-12-05T10:24:59;46.53;;;25.13;;
53479;SDS011;56133;51.012;-1.648;2022-12-05T10:27:32;39.20;;;23.98;;
53479;SDS011;56133;51.012;-1.648;2022-12-05T10:30:02;40.92;;;23.05;;
53479;SDS011;56133;51.012;-1.648;2022-12-05T10:35:21;38.33;;;20.05;;
53479;SDS011;56133;51.012;-1.648;2022-12-05T10:37:55;34.58;;;19.75;;
53479;SDS011;56133;51.012;-1.648;2022-12-05T10:40:26;37.17;;;20.58;;
53479;SDS011;56133;51.012;-1.648;2022-12-05T10:42:59;33.72;;;20.17;;
53479;SDS011;56133;51.012;-1.648;2022-12-05T10:45:25;36.60;;;20.20;;
53479;SDS011;56133;51.012;-1.648;2022-12-05T10:47:54;35.17;;;19.98;;
53479;SDS011;56133;51.012;-1.648;2022-12-05T10:50:27;35.03;;;19.88;;
53479;SDS011;56133;51.012;-1.648;2022-12-05T10:52:56;37.30;;;20.17;;
53479;SDS011;56133;51.012;-1.648;2022-12-05T10:55:24;37.92;;;20.05;;
53479;SDS011;56133;51.012;-1.648;2022-12-05T10:58:13;33.90;;;20.52;;
53479;SDS011;56133;51.012;-1.648;2022-12-05T11:00:43;33.88;;;19.75;;
53479;SDS011;56133;51.012;-1.648;2022-12-05T11:03:20;35.25;;;19.77;;
53479;SDS011;56133;51.012;-1.648;2022-12-05T11:05:48;33.53;;;19.90;;
53479;SDS011;56133;51.012;-1.648;2022-12-05T11:08:25;37.00;;;20.73;;
53479;SDS011;56133;51.012;-1.648;2022-12-05T11:11:05;33.58;;;18.83;;
53479;SDS011;56133;51.012;-1.648;2022-12-05T11:13:33;32.53;;;17.20;;
53479;SDS011;56133;51.012;-1.648;2022-12-05T11:15:59;35.17;;;19.65;;
53479;SDS011;56133;51.012;-1.648;2022-12-05T11:18:26;31.40;;;18.17;;
53479;SDS011;56133;51.012;-1.648;2022-12-05T11:20:55;32.38;;;17.38;;
53479;SDS011;56133;51.012;-1.648;2022-12-05T11:25:55;27.05;;;17.30;;
53479;SDS011;56133;51.012;-1.648;2022-12-05T11:28:23;36.15;;;18.58;;
53479;SDS011;56133;51.012;-1.648;2022-12-05T11:33:38;34.20;;;18.60;;
53479;SDS011;56133;51.012;-1.648;2022-12-05T11:36:14;29.02;;;16.90;;
53479;SDS011;56133;51.012;-1.648;2022-12-05T11:38:43;33.50;;;19.40;;
53479;SDS011;56133;51.012;-1.648;2022-12-05T11:44:13;32.03;;;19.67;;
53479;SDS011;56133;51.012;-1.648;2022-12-05T11:46:50;28.83;;;17.35;;
53479;SDS011;56133;51.012;-1.648;2022-12-05T11:52:12;32.67;;;19.75;;
53479;SDS011;56133;51.012;-1.648;2022-12-05T11:57:27;32.78;;;20.60;;
53479;SDS011;56133;51.012;-1.648;2022-12-05T12:03:13;33.40;;;20.42;;
53479;SDS011;56133;51.012;-1.648;2022-12-05T12:08:05;31.00;;;19.48;;
53479;SDS011;56133;51.012;-1.648;2022-12-05T12:22:01;32.17;;;19.50;;
53479;SDS011;56133;51.012;-1.648;2022-12-05T12:35:19;27.10;;;15.35;;
53479;SDS011;56133;51.012;-1.648;2022-12-05T12:50:59;26.58;;;16.10;;
53479;SDS011;56133;51.012;-1.648;2022-12-05T12:53:32;27.92;;;16.52;;
53479;SDS011;56133;51.012;-1.648;2022-12-05T12:56:10;23.95;;;15.30;;
53479;SDS011;56133;51.012;-1.648;2022-12-05T13:01:53;25.27;;;16.05;;
53479;SDS011;56133;51.012;-1.648;2022-12-05T13:04:21;25.58;;;16.60;;
53479;SDS011;56133;51.012;-1.648;2022-12-05T13:07:07;25.50;;;16.27;;
53479;SDS011;56133;51.012;-1.648;2022-12-05T13:09:41;25.58;;;16.33;;
53479;SDS011;56133;51.012;-1.648;2022-12-05T13:12:13;26.85;;;17.80;;
53479;SDS011;56133;51.012;-1.648;2022-12-05T13:14:51;26.55;;;16.88;;
53479;SDS011;56133;51.012;-1.648;2022-12-05T13:17:22;25.48;;;16.48;;
53479;SDS011;56133;51.012;-1.648;2022-12-05T13:19:51;25.63;;;15.10;;
53479;SDS011;56133;51.012;-1.648;2022-12-05T13:22:18;22.65;;;14.73;;
53479;SDS011;56133;51.012;-1.648;2022-12-05T13:24:49;23.98;;;15.68;;
53479;SDS011;56133;51.012;-1.648;2022-12-05T13:27:16;29.50;;;18.10;;
53479;SDS011;56133;51.012;-1.648;2022-12-05T13:29:48;28.67;;;16.27;;
53479;SDS011;56133;51.012;-1.648;2022-12-05T13:34:58;23.33;;;14.95;;
53479;SDS011;56133;51.012;-1.648;2022-12-05T13:37:29;22.90;;;15.55;;
53479;SDS011;56133;51.012;-1.648;2022-12-05T13:40:21;26.02;;;15.43;;
53479;SDS011;56133;51.012;-1.648;2022-12-05T13:43:17;25.27;;;15.85;;
53479;SDS011;56133;51.012;-1.648;2022-12-05T13:48:43;23.60;;;14.65;;
53479;SDS011;56133;51.012;-1.648;2022-12-05T13:51:28;24.15;;;14.32;;
53479;SDS011;56133;51.012;-1.648;2022-12-05T13:54:20;22.73;;;16.20;;
53479;SDS011;56133;51.012;-1.648;2022-12-05T13:56:58;22.67;;;14.18;;
53479;SDS011;56133;51.012;-1.648;2022-12-05T14:07:41;21.25;;;13.55;;
53479;SDS011;56133;51.012;-1.648;2022-12-05T14:10:10;23.13;;;15.05;;
53479;SDS011;56133;51.012;-1.648;2022-12-05T14:12:50;19.90;;;14.15;;
53479;SDS011;56133;51.012;-1.648;2022-12-05T14:15:24;20.42;;;13.48;;
53479;SDS011;56133;51.012;-1.648;2022-12-05T14:17:54;20.40;;;13.88;;
53479;SDS011;56133;51.012;-1.648;2022-12-05T14:25:59;21.92;;;13.80;;
53479;SDS011;56133;51.012;-1.648;2022-12-05T14:31:18;22.70;;;13.73;;
53479;SDS011;56133;51.012;-1.648;2022-12-05T14:36:38;23.23;;;14.13;;
53479;SDS011;56133;51.012;-1.648;2022-12-05T14:42:24;23.57;;;14.37;;
53479;SDS011;56133;51.012;-1.648;2022-12-05T14:44:50;23.23;;;14.48;;
53479;SDS011;56133;51.012;-1.648;2022-12-05T14:47:22;24.20;;;16.30;;
53479;SDS011;56133;51.012;-1.648;2022-12-05T14:52:26;29.52;;;17.15;;
53479;SDS011;56133;51.012;-1.648;2022-12-05T14:54:57;23.80;;;14.43;;
53479;SDS011;56133;51.012;-1.648;2022-12-05T14:57:26;23.35;;;16.35;;
53479;SDS011;56133;51.012;-1.648;2022-12-05T15:02:28;24.77;;;15.05;;
53479;SDS011;56133;51.012;-1.648;2022-12-05T15:05:01;24.02;;;14.95;;
53479;SDS011;56133;51.012;-1.648;2022-12-05T15:07:38;24.10;;;14.68;;
53479;SDS011;56133;51.012;-1.648;2022-12-05T15:10:21;24.23;;;14.00;;
53479;SDS011;56133;51.012;-1.648;2022-12-05T15:13:06;25.60;;;16.52;;
53479;SDS011;56133;51.012;-1.648;2022-12-05T15:23:38;23.00;;;13.85;;
53479;SDS011;56133;51.012;-1.648;2022-12-05T15:31:57;24.00;;;15.00;;
53479;SDS011;56133;51.012;-1.648;2022-12-05T15:42:52;24.90;;;18.70;;
53479;SDS011;56133;51.012;-1.648;2022-12-05T15:47:54;21.50;;;13.82;;
53479;SDS011;56133;51.012;-1.648;2022-12-05T15:50:31;20.40;;;13.05;;
53479;SDS011;56133;51.012;-1.648;2022-12-05T15:53:05;20.00;;;12.73;;
53479;SDS011;56133;51.012;-1.648;2022-12-05T16:06:16;25.98;;;15.68;;
53479;SDS011;56133;51.012;-1.648;2022-12-05T16:08:48;20.10;;;13.00;;
53479;SDS011;56133;51.012;-1.648;2022-12-05T16:11:14;22.35;;;14.85;;
53479;SDS011;56133;51.012;-1.648;2022-12-05T16:13:41;21.75;;;13.85;;
53479;SDS011;56133;51.012;-1.648;2022-12-05T16:16:09;17.52;;;12.38;;
53479;SDS011;56133;51.012;-1.648;2022-12-05T16:18:53;17.48;;;11.60;;
53479;SDS011;56133;51.012;-1.648;2022-12-05T16:21:26;20.42;;;11.15;;
53479;SDS011;56133;51.012;-1.648;2022-12-05T16:24:18;18.30;;;12.82;;
53479;SDS011;56133;51.012;-1.648;2022-12-05T16:26:58;21.88;;;13.70;;
53479;SDS011;56133;51.012;-1.648;2022-12-05T16:29:37;22.95;;;17.02;;
53479;SDS011;56133;51.012;-1.648;2022-12-05T16:32:03;20.48;;;13.55;;
53479;SDS011;56133;51.012;-1.648;2022-12-05T16:34:38;34.65;;;18.55;;
53479;SDS011;56133;51.012;-1.648;2022-12-05T16:37:04;37.92;;;22.48;;
53479;SDS011;56133;51.012;-1.648;2022-12-05T16:39:32;27.83;;;18.33;;
53479;SDS011;56133;51.012;-1.648;2022-12-05T16:41:58;21.58;;;13.00;;
53479;SDS011;56133;51.012;-1.648;2022-12-05T16:46:55;33.20;;;19.15;;
53479;SDS011;56133;51.012;-1.648;2022-12-05T16:54:31;26.10;;;16.30;;
53479;SDS011;56133;51.012;-1.648;2022-12-05T16:56:58;33.60;;;18.13;;
53479;SDS011;56133;51.012;-1.648;2022-12-05T16:59:37;31.00;;;18.42;;
53479;SDS011;56133;51.012;-1.648;2022-12-05T17:02:10;27.42;;;14.77;;
53479;SDS011;56133;51.012;-1.648;2022-12-05T17:04:37;23.42;;;15.20;;
53479;SDS011;56133;51.012;-1.648;2022-12-05T17:07:03;23.42;;;13.77;;
53479;SDS011;56133;51.012;-1.648;2022-12-05T17:09:29;24.83;;;13.77;;
53479;SDS011;56133;51.012;-1.648;2022-12-05T17:11:57;22.45;;;12.77;;
53479;SDS011;56133;51.012;-1.648;2022-12-05T17:14:45;25.92;;;15.23;;
53479;SDS011;56133;51.012;-1.648;2022-12-05T17:17:11;22.02;;;12.70;;
53479;SDS011;56133;51.012;-1.648;2022-12-05T17:19:39;21.90;;;14.02;;
53479;SDS011;56133;51.012;-1.648;2022-12-05T17:22:05;23.77;;;14.80;;
53479;SDS011;56133;51.012;-1.648;2022-12-05T17:24:30;26.55;;;14.70;;
53479;SDS011;56133;51.012;-1.648;2022-12-05T17:26:56;21.73;;;13.52;;
53479;SDS011;56133;51.012;-1.648;2022-12-05T17:29:21;20.75;;;12.98;;
53479;SDS011;56133;51.012;-1.648;2022-12-05T17:31:47;25.55;;;14.90;;
53479;SDS011;56133;51.012;-1.648;2022-12-05T17:34:14;26.67;;;16.73;;
53479;SDS011;56133;51.012;-1.648;2022-12-05T17:36:44;33.63;;;19.20;;
53479;SDS011;56133;51.012;-1.648;2022-12-05T17:39:10;32.38;;;17.85;;
53479;SDS011;56133;51.012;-1.648;2022-12-05T17:41:35;26.35;;;16.05;;
53479;SDS011;56133;51.012;-1.648;2022-12-05T17:44:01;27.65;;;16.33;;
53479;SDS011;56133;51.012;-1.648;2022-12-05T17:46:27;24.30;;;14.68;;
53479;SDS011;56133;51.012;-1.648;2022-12-05T17:48:53;20.50;;;12.00;;
53479;SDS011;56133;51.012;-1.648;2022-12-05T17:51:18;53.78;;;25.17;;
53479;SDS011;56133;51.012;-1.648;2022-12-05T17:53:44;29.80;;;18.00;;
53479;SDS011;56133;51.012;-1.648;2022-12-05T17:56:11;21.75;;;11.98;;